createdAt,value
2022-11-25T00:00:01.897Z,4.45
2022-11-25T00:01:08.514Z,4.42
2022-11-25T00:02:10.190Z,4.52
2022-11-25T00:03:11.896Z,4.55
2022-11-25T00:04:14.072Z,4.54
2022-11-25T00:05:15.761Z,4.53
2022-11-25T00:06:25.984Z,4.55
2022-11-25T00:07:27.544Z,4.52
2022-11-25T00:08:29.176Z,4.50
2022-11-25T00:09:30.735Z,4.53
2022-11-25T00:10:32.291Z,4.51
2022-11-25T00:11:39.432Z,4.49
2022-11-25T00:12:41.028Z,4.50
2022-11-25T00:13:44.342Z,4.51
2022-11-25T00:14:45.966Z,4.50
2022-11-25T00:15:47.519Z,4.53
2022-11-25T00:16:49.206Z,4.47
2022-11-25T00:17:52.208Z,4.64
2022-11-25T00:18:55.525Z,4.75
2022-11-25T00:19:57.184Z,4.86
2022-11-25T00:21:04.839Z,4.91
2022-11-25T00:22:06.506Z,4.95
2022-11-25T00:23:08.149Z,5.14
2022-11-25T00:24:13.295Z,5.21
2022-11-25T00:25:15.445Z,5.20
2022-11-25T00:26:17.311Z,5.20
2022-11-25T00:27:18.910Z,5.19
2022-11-25T00:28:20.470Z,5.20
2022-11-25T00:29:22.163Z,5.22
2022-11-25T00:30:23.739Z,5.34
2022-11-25T00:31:28.719Z,5.52
2022-11-25T00:32:30.398Z,5.52
2022-11-25T00:33:31.931Z,5.49
2022-11-25T00:34:33.653Z,5.51
2022-11-25T00:35:35.581Z,5.46
2022-11-25T00:36:37.725Z,5.41
2022-11-25T00:37:39.281Z,5.43
2022-11-25T00:38:40.899Z,5.43
2022-11-25T00:39:42.503Z,5.41
2022-11-25T00:41:04.290Z,5.41
2022-11-25T00:42:24.361Z,5.34
2022-11-25T00:43:44.507Z,5.30
2022-11-25T00:44:46.146Z,5.31
2022-11-25T00:45:47.840Z,5.27
2022-11-25T00:46:49.446Z,5.27
2022-11-25T00:47:53.492Z,5.27
2022-11-25T00:48:55.060Z,5.30
2022-11-25T00:49:56.629Z,5.19
2022-11-25T00:50:58.236Z,5.32
2022-11-25T00:51:59.839Z,5.43
2022-11-25T00:53:01.481Z,5.45
2022-11-25T00:54:03.409Z,5.49
2022-11-25T00:55:05.290Z,5.44
2022-11-25T00:56:13.060Z,5.41
2022-11-25T00:57:15.816Z,5.46
2022-11-25T00:58:17.443Z,5.48
2022-11-25T00:59:19.420Z,5.52
2022-11-25T01:00:21.135Z,5.52
2022-11-25T01:01:22.800Z,5.51
2022-11-25T01:02:24.531Z,5.50
2022-11-25T01:03:26.234Z,5.49
2022-11-25T01:04:28.045Z,5.44
2022-11-25T01:05:29.605Z,5.43
2022-11-25T01:06:31.224Z,5.32
2022-11-25T01:07:32.923Z,5.42
2022-11-25T01:08:35.460Z,5.40
2022-11-25T01:09:37.648Z,5.36
2022-11-25T01:10:39.213Z,5.34
2022-11-25T01:11:41.076Z,5.32
2022-11-25T01:12:42.619Z,5.32
2022-11-25T01:13:44.186Z,5.29
2022-11-25T01:14:45.822Z,5.26
2022-11-25T01:15:47.361Z,5.23
2022-11-25T01:16:49.974Z,5.23
2022-11-25T01:17:51.572Z,5.28
2022-11-25T01:18:53.296Z,5.28
2022-11-25T01:19:54.814Z,5.30
2022-11-25T01:21:21.728Z,5.28
2022-11-25T01:22:23.300Z,5.38
2022-11-25T01:23:24.825Z,5.36
2022-11-25T01:24:26.578Z,5.34
2022-11-25T01:25:28.188Z,5.32
2022-11-25T01:26:30.809Z,5.34
2022-11-25T01:27:33.215Z,5.31
2022-11-25T01:28:35.005Z,5.36
2022-11-25T01:29:36.547Z,5.34
2022-11-25T01:30:41.208Z,5.33
2022-11-25T01:31:43.914Z,5.33
2022-11-25T01:32:45.588Z,5.29
2022-11-25T01:33:52.134Z,5.27
2022-11-25T01:34:53.658Z,5.25
2022-11-25T01:35:55.254Z,5.27
2022-11-25T01:36:56.797Z,5.28
2022-11-25T01:37:58.358Z,5.30
2022-11-25T01:39:00.872Z,5.36
2022-11-25T01:40:02.408Z,5.36
2022-11-25T01:41:05.215Z,5.42
2022-11-25T01:42:06.837Z,5.42
2022-11-25T01:43:14.595Z,5.45
2022-11-25T01:44:17.623Z,5.48
2022-11-25T01:45:23.759Z,5.51
2022-11-25T01:46:31.384Z,5.55
2022-11-25T01:47:33.167Z,5.56
2022-11-25T01:48:43.051Z,5.55
2022-11-25T01:49:48.425Z,5.51
2022-11-25T01:50:50.715Z,5.50
2022-11-25T01:52:10.436Z,5.46
2022-11-25T01:53:13.922Z,5.44
2022-11-25T01:54:23.173Z,5.43
2022-11-25T01:55:29.661Z,5.45
2022-11-25T01:56:36.076Z,5.48
2022-11-25T01:57:48.687Z,5.54
2022-11-25T01:58:50.424Z,5.51
2022-11-25T01:59:54.868Z,5.48
2022-11-25T02:00:56.603Z,5.42
2022-11-25T02:01:58.963Z,5.40
2022-11-25T02:03:01.178Z,5.36
2022-11-25T02:04:03.911Z,5.32
2022-11-25T02:05:10.656Z,5.31
2022-11-25T02:06:23.680Z,5.28
2022-11-25T02:07:33.080Z,5.27
2022-11-25T02:08:34.854Z,5.29
2022-11-25T02:09:39.606Z,5.30
2022-11-25T02:10:44.489Z,5.30
2022-11-25T02:11:46.443Z,5.29
2022-11-25T02:12:48.634Z,5.27
2022-11-25T02:13:51.471Z,5.30
2022-11-25T02:14:55.755Z,5.32
2022-11-25T02:15:57.417Z,5.32
2022-11-25T02:17:02.271Z,5.28
2022-11-25T02:18:04.623Z,5.30
2022-11-25T02:19:18.332Z,5.36
2022-11-25T02:20:22.603Z,5.37
2022-11-25T02:21:38.695Z,5.40
2022-11-25T02:22:40.334Z,5.41
2022-11-25T02:23:56.836Z,5.37
2022-11-25T02:25:08.466Z,5.42
2022-11-25T02:26:10.434Z,5.48
2022-11-25T02:27:12.433Z,5.55
2022-11-25T02:28:17.974Z,5.58
2022-11-25T02:29:20.236Z,5.63
2022-11-25T02:30:21.996Z,5.65
2022-11-25T02:31:24.591Z,5.73
2022-11-25T02:32:26.381Z,5.81
2022-11-25T02:33:28.072Z,5.87
2022-11-25T02:34:29.711Z,5.86
2022-11-25T02:35:37.445Z,5.85
2022-11-25T02:36:39.070Z,5.90
2022-11-25T02:37:40.671Z,5.93
2022-11-25T02:38:52.944Z,5.94
2022-11-25T02:39:55.222Z,5.93
2022-11-25T02:41:04.671Z,5.99
2022-11-25T02:42:07.007Z,5.98
2022-11-25T02:43:08.625Z,5.97
2022-11-25T02:44:10.287Z,6.00
2022-11-25T02:45:14.977Z,6.02
2022-11-25T02:46:22.491Z,5.99
2022-11-25T02:47:24.489Z,5.96
2022-11-25T02:48:52.801Z,5.92
2022-11-25T02:49:50.410Z,5.91
2022-11-25T02:50:52.032Z,5.89
2022-11-25T02:51:53.610Z,5.95
2022-11-25T02:52:55.187Z,5.95
2022-11-25T02:53:57.046Z,5.93
2022-11-25T02:54:58.646Z,5.99
2022-11-25T02:56:00.333Z,5.97
2022-11-25T02:57:02.016Z,5.95
2022-11-25T02:58:03.665Z,5.94
2022-11-25T02:59:05.222Z,5.87
2022-11-25T03:00:07.497Z,5.84
2022-11-25T03:01:09.977Z,5.83
2022-11-25T03:02:11.743Z,5.84
2022-11-25T03:03:14.418Z,5.81
2022-11-25T03:04:16.007Z,5.80
2022-11-25T03:05:17.677Z,5.86
2022-11-25T03:06:19.335Z,5.87
2022-11-25T03:07:21.001Z,5.85
2022-11-25T03:08:22.623Z,5.77
2022-11-25T03:09:24.189Z,5.78
2022-11-25T03:10:25.896Z,5.80
2022-11-25T03:11:53.897Z,5.78
2022-11-25T03:12:55.450Z,5.98
2022-11-25T03:13:57.014Z,6.03
2022-11-25T03:14:58.590Z,6.01
2022-11-25T03:16:00.226Z,5.95
2022-11-25T03:17:01.895Z,5.91
2022-11-25T03:18:05.326Z,5.94
2022-11-25T03:19:06.852Z,5.91
2022-11-25T03:20:09.750Z,5.86
2022-11-25T03:21:11.416Z,5.79
2022-11-25T03:22:13.055Z,5.73
2022-11-25T03:23:14.620Z,5.57
2022-11-25T03:24:16.194Z,5.66
2022-11-25T03:25:18.133Z,5.60
2022-11-25T03:26:19.718Z,5.55
2022-11-25T03:27:21.230Z,5.49
2022-11-25T03:28:23.318Z,5.43
2022-11-25T03:29:25.399Z,5.42
2022-11-25T03:30:28.513Z,5.39
2022-11-25T03:31:30.272Z,5.42
2022-11-25T03:32:32.159Z,5.41
2022-11-25T03:33:33.730Z,5.38
2022-11-25T03:34:35.607Z,5.34
2022-11-25T03:35:37.482Z,5.31
2022-11-25T03:36:39.498Z,5.31
2022-11-25T03:37:41.512Z,5.30
2022-11-25T03:38:43.080Z,5.24
2022-11-25T03:39:44.701Z,5.29
2022-11-25T03:40:47.898Z,5.30
2022-11-25T03:41:49.946Z,5.23
2022-11-25T03:42:51.529Z,5.27
2022-11-25T03:43:53.184Z,5.35
2022-11-25T03:44:54.821Z,5.35
2022-11-25T03:45:56.431Z,5.35
2022-11-25T03:46:58.122Z,5.35
2022-11-25T03:47:59.737Z,5.34
2022-11-25T03:49:01.296Z,5.30
2022-11-25T03:50:02.952Z,5.36
2022-11-25T03:51:04.642Z,5.33
2022-11-25T03:52:06.543Z,5.33
2022-11-25T03:53:08.502Z,5.30
2022-11-25T03:54:10.127Z,5.29
2022-11-25T03:55:13.056Z,5.27
2022-11-25T03:56:15.183Z,5.28
2022-11-25T03:57:17.073Z,5.19
2022-11-25T03:58:18.596Z,5.20
2022-11-25T03:59:20.226Z,5.13
2022-11-25T04:00:22.087Z,5.16
2022-11-25T04:01:23.699Z,5.12
2022-11-25T04:02:25.393Z,5.11
2022-11-25T04:03:27.089Z,5.08
2022-11-25T04:04:28.917Z,5.06
2022-11-25T04:05:30.484Z,5.04
2022-11-25T04:06:32.149Z,5.02
2022-11-25T04:07:33.779Z,4.98
2022-11-25T04:08:35.657Z,4.97
2022-11-25T04:09:37.332Z,4.93
2022-11-25T04:10:38.927Z,4.94
2022-11-25T04:11:59.174Z,4.92
2022-11-25T04:13:00.722Z,4.87
2022-11-25T04:14:02.270Z,4.84
2022-11-25T04:15:04.709Z,4.79
2022-11-25T04:16:06.305Z,4.76
2022-11-25T04:17:07.949Z,4.72
2022-11-25T04:18:09.484Z,4.67
2022-11-25T04:19:11.159Z,4.63
2022-11-25T04:20:14.040Z,4.59
2022-11-25T04:21:16.849Z,4.59
2022-11-25T04:22:18.425Z,4.62
2022-11-25T04:23:20.405Z,4.58
2022-11-25T04:24:22.024Z,4.56
2022-11-25T04:25:23.547Z,4.52
2022-11-25T04:26:25.120Z,4.49
2022-11-25T04:27:28.656Z,4.45
2022-11-25T04:28:30.259Z,4.41
2022-11-25T04:29:31.812Z,4.39
2022-11-25T04:30:34.229Z,4.36
2022-11-25T04:31:37.983Z,4.33
2022-11-25T04:32:39.623Z,4.31
2022-11-25T04:33:41.191Z,4.26
2022-11-25T04:34:42.871Z,4.22
2022-11-25T04:35:44.514Z,4.17
2022-11-25T04:36:46.078Z,4.13
2022-11-25T04:37:47.951Z,4.10
2022-11-25T04:38:50.168Z,4.10
2022-11-25T04:39:51.755Z,4.07
2022-11-25T04:40:53.320Z,4.03
2022-11-25T04:42:14.833Z,4.03
2022-11-25T04:43:16.444Z,4.13
2022-11-25T04:44:17.974Z,4.15
2022-11-25T04:45:23.912Z,4.12
2022-11-25T04:46:33.093Z,4.11
2022-11-25T04:47:34.694Z,4.13
2022-11-25T04:48:36.274Z,4.09
2022-11-25T04:49:37.983Z,4.08
2022-11-25T04:50:39.629Z,4.09
2022-11-25T04:51:41.184Z,4.09
2022-11-25T04:52:42.813Z,4.09
2022-11-25T04:53:45.838Z,4.10
2022-11-25T04:54:47.524Z,4.13
2022-11-25T04:55:49.514Z,4.10
2022-11-25T04:56:51.111Z,4.11
2022-11-25T04:57:52.699Z,4.10
2022-11-25T04:59:12.966Z,4.09
2022-11-25T05:00:14.971Z,4.09
2022-11-25T05:01:16.690Z,4.07
2022-11-25T05:02:21.675Z,4.08
2022-11-25T05:03:23.408Z,4.14
2022-11-25T05:04:25.083Z,4.15
2022-11-25T05:05:26.831Z,4.17
2022-11-25T05:06:28.414Z,4.17
2022-11-25T05:07:30.199Z,4.22
2022-11-25T05:08:32.164Z,4.25
2022-11-25T05:09:33.745Z,4.28
2022-11-25T05:10:35.339Z,4.29
2022-11-25T05:11:36.988Z,4.28
2022-11-25T05:12:38.673Z,4.26
2022-11-25T05:13:40.399Z,4.26
2022-11-25T05:14:41.930Z,4.28
2022-11-25T05:15:44.240Z,4.22
2022-11-25T05:16:45.819Z,4.18
2022-11-25T05:17:47.584Z,4.07
2022-11-25T05:18:49.303Z,4.09
2022-11-25T05:19:51.355Z,4.02
2022-11-25T05:20:52.914Z,4.02
2022-11-25T05:21:54.766Z,3.97
2022-11-25T05:22:56.333Z,3.90
2022-11-25T05:23:57.876Z,3.84
2022-11-25T05:24:59.720Z,3.85
2022-11-25T05:26:03.439Z,3.82
2022-11-25T05:27:05.552Z,3.82
2022-11-25T05:28:07.100Z,3.80
2022-11-25T05:29:09.812Z,3.80
2022-11-25T05:30:11.711Z,3.77
2022-11-25T05:31:13.344Z,3.77
2022-11-25T05:32:15.760Z,3.77
2022-11-25T05:33:17.400Z,3.76
2022-11-25T05:34:19.269Z,3.73
2022-11-25T05:35:21.846Z,3.74
2022-11-25T05:36:23.444Z,3.76
2022-11-25T05:37:25.084Z,3.80
2022-11-25T05:38:27.117Z,3.76
2022-11-25T05:39:28.766Z,3.82
2022-11-25T05:40:31.825Z,3.84
2022-11-25T05:41:33.621Z,3.90
2022-11-25T05:42:35.250Z,3.97
2022-11-25T05:43:37.189Z,3.95
2022-11-25T05:44:39.118Z,3.97
2022-11-25T05:45:40.942Z,3.99
2022-11-25T05:46:46.646Z,3.98
2022-11-25T05:47:48.251Z,3.98
2022-11-25T05:48:53.229Z,4.00
2022-11-25T05:49:54.843Z,4.07
2022-11-25T05:51:00.813Z,4.10
2022-11-25T05:52:02.506Z,4.12
2022-11-25T05:53:04.692Z,4.17
2022-11-25T05:54:06.279Z,4.17
2022-11-25T05:55:08.459Z,4.15
2022-11-25T05:56:10.520Z,4.14
2022-11-25T05:57:12.165Z,4.12
2022-11-25T05:58:13.707Z,4.13
2022-11-25T05:59:15.321Z,4.08
2022-11-25T06:00:18.410Z,4.07
2022-11-25T06:01:23.926Z,4.07
2022-11-25T06:02:25.687Z,4.05
2022-11-25T06:03:28.903Z,4.04
2022-11-25T06:04:30.434Z,4.05
2022-11-25T06:05:35.270Z,4.05
2022-11-25T06:06:36.773Z,4.07
2022-11-25T06:07:38.355Z,4.13
2022-11-25T06:08:40.331Z,4.16
2022-11-25T06:09:41.859Z,4.15
2022-11-25T06:10:43.462Z,4.18
2022-11-25T06:11:45.111Z,4.18
2022-11-25T06:12:46.712Z,4.18
2022-11-25T06:13:48.598Z,4.19
2022-11-25T06:14:50.885Z,4.18
2022-11-25T06:15:52.566Z,4.18
2022-11-25T06:16:54.225Z,4.20
2022-11-25T06:17:55.909Z,4.18
2022-11-25T06:18:57.586Z,4.17
2022-11-25T06:19:59.208Z,4.17
2022-11-25T06:21:00.741Z,4.16
2022-11-25T06:22:02.263Z,4.19
2022-11-25T06:23:03.926Z,4.19
2022-11-25T06:24:05.832Z,4.19
2022-11-25T06:25:07.829Z,4.19
2022-11-25T06:26:15.568Z,4.18
2022-11-25T06:27:17.088Z,4.16
2022-11-25T06:28:18.702Z,4.16
2022-11-25T06:29:20.721Z,4.14
2022-11-25T06:30:22.340Z,4.15
2022-11-25T06:31:25.916Z,4.16
2022-11-25T06:32:27.631Z,4.16
2022-11-25T06:33:29.218Z,4.17
2022-11-25T06:34:30.743Z,4.18
2022-11-25T06:35:32.361Z,4.20
2022-11-25T06:36:34.005Z,4.21
2022-11-25T06:37:35.623Z,4.22
2022-11-25T06:38:37.267Z,4.25
2022-11-25T06:39:38.917Z,4.28
2022-11-25T06:40:40.552Z,4.30
2022-11-25T06:41:42.128Z,4.33
2022-11-25T06:42:43.751Z,4.35
2022-11-25T06:43:45.367Z,4.36
2022-11-25T06:44:46.921Z,4.37
2022-11-25T06:45:48.515Z,4.40
2022-11-25T06:46:50.103Z,4.40
2022-11-25T06:47:51.812Z,4.40
2022-11-25T06:48:54.078Z,4.43
2022-11-25T06:49:55.697Z,4.46
2022-11-25T06:51:03.468Z,4.49
2022-11-25T06:52:05.286Z,4.52
2022-11-25T06:53:06.908Z,4.52
2022-11-25T06:54:10.238Z,4.54
2022-11-25T06:55:12.077Z,4.56
2022-11-25T06:56:20.292Z,4.59
2022-11-25T06:57:21.912Z,4.63
2022-11-25T06:58:35.293Z,4.68
2022-11-25T06:59:38.081Z,4.70
2022-11-25T07:00:39.625Z,4.74
2022-11-25T07:01:41.269Z,4.76
2022-11-25T07:02:48.250Z,4.76
2022-11-25T07:03:53.488Z,4.77
2022-11-25T07:04:55.165Z,4.80
2022-11-25T07:05:58.350Z,4.80
2022-11-25T07:07:00.021Z,4.82
2022-11-25T07:08:01.603Z,4.83
2022-11-25T07:09:04.476Z,4.86
2022-11-25T07:10:06.842Z,4.89
2022-11-25T07:11:14.720Z,4.91
2022-11-25T07:12:16.360Z,4.94
2022-11-25T07:13:18.651Z,4.93
2022-11-25T07:14:20.279Z,4.93
2022-11-25T07:15:21.858Z,4.96
2022-11-25T07:16:23.823Z,4.97
2022-11-25T07:17:25.525Z,4.98
2022-11-25T07:18:29.582Z,4.98
2022-11-25T07:19:35.790Z,4.98
2022-11-25T07:20:37.416Z,5.00
2022-11-25T07:21:39.323Z,4.99
2022-11-25T07:22:40.935Z,4.99
2022-11-25T07:23:44.117Z,5.01
2022-11-25T07:24:45.777Z,5.00
2022-11-25T07:25:47.360Z,5.01
2022-11-25T07:26:48.938Z,5.00
2022-11-25T07:27:50.585Z,5.00
2022-11-25T07:28:53.921Z,5.03
2022-11-25T07:30:19.111Z,5.06
2022-11-25T07:31:28.557Z,5.08
2022-11-25T07:32:33.560Z,5.12
2022-11-25T07:33:36.161Z,5.13
2022-11-25T07:34:38.283Z,5.14
2022-11-25T07:35:39.930Z,5.16
2022-11-25T07:36:44.920Z,5.17
2022-11-25T07:37:46.654Z,5.20
2022-11-25T07:38:48.823Z,5.21
2022-11-25T07:39:50.443Z,5.21
2022-11-25T07:40:51.979Z,5.18
2022-11-25T07:41:54.205Z,5.21
2022-11-25T07:42:55.759Z,5.19
2022-11-25T07:44:00.188Z,5.22
2022-11-25T07:45:01.822Z,5.25
2022-11-25T07:46:14.136Z,5.30
2022-11-25T07:47:15.771Z,5.30
2022-11-25T07:48:17.359Z,5.35
2022-11-25T07:49:25.399Z,5.39
2022-11-25T07:50:27.041Z,5.42
2022-11-25T07:51:32.203Z,5.43
2022-11-25T07:52:33.767Z,5.49
2022-11-25T07:53:35.441Z,5.56
2022-11-25T07:54:37.061Z,5.58
2022-11-25T07:55:38.644Z,5.61
2022-11-25T07:56:42.488Z,5.61
2022-11-25T07:57:44.112Z,5.63
2022-11-25T07:58:46.356Z,5.62
2022-11-25T07:59:48.037Z,5.63
2022-11-25T08:00:49.642Z,5.67
2022-11-25T08:01:53.776Z,5.51
2022-11-25T08:02:55.443Z,5.72
2022-11-25T08:03:57.216Z,5.74
2022-11-25T08:04:58.858Z,5.78
2022-11-25T08:06:04.701Z,5.81
2022-11-25T08:07:06.454Z,5.88
2022-11-25T08:08:08.069Z,5.93
2022-11-25T08:09:15.664Z,5.98
2022-11-25T08:10:17.384Z,6.02
2022-11-25T08:11:22.469Z,6.08
2022-11-25T08:12:24.017Z,6.12
2022-11-25T08:13:25.850Z,6.15
2022-11-25T08:14:27.417Z,6.19
2022-11-25T08:15:29.067Z,6.25
2022-11-25T08:16:33.696Z,6.28
2022-11-25T08:17:35.332Z,6.31
2022-11-25T08:18:37.069Z,6.38
2022-11-25T08:19:40.180Z,6.38
2022-11-25T08:20:41.940Z,6.35
2022-11-25T08:21:44.099Z,6.36
2022-11-25T08:22:45.674Z,6.39
2022-11-25T08:23:48.867Z,6.39
2022-11-25T08:24:50.471Z,6.38
2022-11-25T08:25:51.997Z,6.35
2022-11-25T08:26:54.923Z,6.35
2022-11-25T08:27:56.607Z,6.36
2022-11-25T08:29:01.424Z,6.37
2022-11-25T08:30:03.309Z,6.42
2022-11-25T08:31:10.504Z,6.49
2022-11-25T08:32:12.258Z,6.56
2022-11-25T08:33:13.835Z,6.59
2022-11-25T08:34:23.045Z,6.63
2022-11-25T08:35:24.878Z,6.75
2022-11-25T08:36:28.347Z,6.86
2022-11-25T08:37:31.091Z,6.93
2022-11-25T08:38:33.478Z,7.02
2022-11-25T08:39:51.809Z,7.02
2022-11-25T08:40:54.824Z,7.11
2022-11-25T08:41:56.648Z,7.22
2022-11-25T08:42:58.328Z,7.27
2022-11-25T08:44:02.080Z,7.23
2022-11-25T08:45:05.455Z,7.29
2022-11-25T08:46:09.079Z,7.41
2022-11-25T08:47:10.784Z,7.43
2022-11-25T08:48:12.364Z,7.42
2022-11-25T08:49:16.759Z,7.52
2022-11-25T08:50:19.176Z,7.58
2022-11-25T08:51:24.963Z,7.60
2022-11-25T08:52:28.921Z,7.64
2022-11-25T08:53:30.648Z,7.63
2022-11-25T08:54:32.190Z,7.55
2022-11-25T08:55:33.853Z,7.52
2022-11-25T08:56:36.095Z,7.49
2022-11-25T08:57:37.723Z,7.38
2022-11-25T08:58:39.827Z,7.37
2022-11-25T08:59:41.858Z,7.37
2022-11-25T09:00:45.064Z,7.40
2022-11-25T09:01:46.755Z,7.39
2022-11-25T09:02:48.504Z,7.34
2022-11-25T09:03:51.930Z,7.38
2022-11-25T09:04:53.589Z,7.42
2022-11-25T09:05:55.342Z,7.41
2022-11-25T09:06:57.168Z,7.34
2022-11-25T09:07:58.749Z,7.40
2022-11-25T09:09:01.886Z,7.46
2022-11-25T09:10:05.292Z,7.49
2022-11-25T09:11:07.825Z,7.59
2022-11-25T09:12:09.684Z,7.72
2022-11-25T09:13:11.735Z,7.90
2022-11-25T09:14:13.838Z,8.10
2022-11-25T09:15:15.655Z,8.16
2022-11-25T09:16:17.315Z,8.14
2022-11-25T09:17:19.100Z,8.38
2022-11-25T09:18:25.664Z,8.43
2022-11-25T09:19:27.660Z,8.47
2022-11-25T09:20:29.836Z,8.52
2022-11-25T09:21:31.741Z,8.61
2022-11-25T09:22:33.309Z,8.64
2022-11-25T09:23:34.967Z,8.73
2022-11-25T09:24:36.797Z,8.79
2022-11-25T09:25:39.041Z,8.81
2022-11-25T09:26:42.188Z,8.86
2022-11-25T09:27:43.939Z,8.80
2022-11-25T09:28:45.570Z,8.81
2022-11-25T09:29:47.084Z,8.81
2022-11-25T09:30:49.124Z,8.74
2022-11-25T09:31:54.721Z,8.65
2022-11-25T09:32:56.893Z,8.53
2022-11-25T09:33:58.897Z,8.42
2022-11-25T09:35:00.530Z,8.38
2022-11-25T09:36:03.488Z,8.34
2022-11-25T09:37:05.185Z,8.26
2022-11-25T09:38:06.804Z,8.22
2022-11-25T09:39:08.367Z,8.16
2022-11-25T09:40:18.572Z,8.11
2022-11-25T09:42:17.205Z,8.05
2022-11-25T09:44:12.682Z,8.00
2022-11-25T09:45:47.278Z,7.93
2022-11-25T09:47:03.798Z,7.83
2022-11-25T09:48:08.059Z,7.91
2022-11-25T09:49:12.467Z,7.77
2022-11-25T09:50:21.028Z,7.97
2022-11-25T09:51:28.457Z,7.99
2022-11-25T09:52:36.005Z,8.08
2022-11-25T09:53:50.281Z,8.11
2022-11-25T09:55:12.096Z,8.14
2022-11-25T09:56:29.757Z,8.17
2022-11-25T09:57:44.415Z,8.16
2022-11-25T09:58:55.798Z,8.16
2022-11-25T10:00:13.504Z,8.12
2022-11-25T10:01:22.727Z,8.12
2022-11-25T10:02:34.339Z,8.13
2022-11-25T10:03:44.669Z,8.08
2022-11-25T10:04:58.460Z,8.01
2022-11-25T10:06:08.329Z,7.99
2022-11-25T10:07:19.814Z,8.00
2022-11-25T10:08:26.874Z,8.01
2022-11-25T10:09:32.207Z,8.03
2022-11-25T10:10:43.595Z,8.16
2022-11-25T10:12:03.534Z,8.24
2022-11-25T10:13:11.717Z,8.28
2022-11-25T10:14:25.282Z,8.42
2022-11-25T10:15:35.430Z,8.48
2022-11-25T10:16:58.308Z,8.57
2022-11-25T10:18:05.554Z,8.71
2022-11-25T10:19:22.401Z,8.87
2022-11-25T10:20:28.301Z,8.95
2022-11-25T10:21:30.210Z,8.81
2022-11-25T10:22:37.738Z,8.74
2022-11-25T10:23:39.962Z,8.74
2022-11-25T10:24:41.707Z,8.73
2022-11-25T10:25:47.188Z,8.70
2022-11-25T10:26:57.577Z,8.61
2022-11-25T10:28:01.104Z,8.57
2022-11-25T10:29:15.134Z,8.65
2022-11-25T10:30:25.791Z,8.71
2022-11-25T10:31:36.383Z,8.66
2022-11-25T10:32:43.428Z,8.54
2022-11-25T10:33:46.171Z,8.54
2022-11-25T10:34:57.065Z,8.63
2022-11-25T10:36:08.299Z,8.69
2022-11-25T10:37:25.562Z,8.73
2022-11-25T10:38:45.465Z,8.69
2022-11-25T10:39:47.011Z,8.54
2022-11-25T10:40:51.546Z,8.52
2022-11-25T10:41:58.968Z,8.48
2022-11-25T10:43:08.387Z,8.38
2022-11-25T10:44:25.831Z,8.47
2022-11-25T10:45:35.382Z,8.44
2022-11-25T10:47:13.414Z,8.42
2022-11-25T10:48:53.558Z,8.41
2022-11-25T10:50:31.303Z,8.35
2022-11-25T10:51:49.726Z,8.28
2022-11-25T10:53:02.403Z,8.25
2022-11-25T10:54:26.797Z,8.22
2022-11-25T10:55:33.760Z,8.23
2022-11-25T10:56:57.043Z,8.24
2022-11-25T10:57:59.699Z,8.25
2022-11-25T10:59:14.351Z,8.28
2022-11-25T11:00:48.208Z,8.29
2022-11-25T11:01:52.299Z,8.30
2022-11-25T11:02:55.214Z,8.30
2022-11-25T11:04:15.061Z,8.31
2022-11-25T11:05:22.205Z,8.34
2022-11-25T11:06:40.727Z,8.33
2022-11-25T11:07:44.830Z,8.33
2022-11-25T11:08:46.493Z,8.34
2022-11-25T11:09:49.061Z,8.36
2022-11-25T11:11:14.569Z,8.34
2022-11-25T11:12:24.129Z,8.27
2022-11-25T11:13:33.227Z,8.27
2022-11-25T11:14:35.187Z,8.31
2022-11-25T11:15:39.972Z,8.31
2022-11-25T11:16:45.614Z,8.34
2022-11-25T11:17:48.418Z,8.37
2022-11-25T11:18:51.559Z,8.39
2022-11-25T11:20:24.452Z,8.31
2022-11-25T11:21:31.353Z,8.50
2022-11-25T11:22:44.952Z,8.54
2022-11-25T11:23:53.754Z,8.58
2022-11-25T11:25:23.508Z,8.63
2022-11-25T11:26:35.723Z,8.67
2022-11-25T11:27:38.822Z,8.67
2022-11-25T11:28:41.494Z,8.67
2022-11-25T11:29:43.057Z,8.70
2022-11-25T11:31:00.073Z,8.69
2022-11-25T11:32:04.775Z,8.72
2022-11-25T11:33:44.742Z,8.76
2022-11-25T11:35:02.781Z,8.77
2022-11-25T11:36:07.288Z,8.72
2022-11-25T11:37:28.469Z,8.72
2022-11-25T11:38:37.958Z,8.77
2022-11-25T11:40:04.621Z,8.81
2022-11-25T11:41:23.026Z,8.90
2022-11-25T11:43:16.142Z,9.01
2022-11-25T11:44:35.459Z,9.03
2022-11-25T11:45:53.347Z,9.10
2022-11-25T11:47:38.212Z,9.29
2022-11-25T11:48:49.977Z,9.43
2022-11-25T11:49:57.422Z,9.54
2022-11-25T11:51:11.195Z,9.66
2022-11-25T11:52:30.299Z,9.84
2022-11-25T11:53:39.040Z,9.73
2022-11-25T11:54:46.532Z,9.58
2022-11-25T11:56:26.777Z,9.85
2022-11-25T11:57:28.669Z,10.01
2022-11-25T11:59:11.706Z,10.13
2022-11-25T12:00:15.206Z,10.26
2022-11-25T12:01:22.724Z,10.22
2022-11-25T12:02:36.532Z,10.28
2022-11-25T12:03:54.228Z,10.19
2022-11-25T12:04:58.997Z,10.07
2022-11-25T12:06:04.868Z,9.92
2022-11-25T12:07:13.054Z,9.69
2022-11-25T12:08:34.059Z,9.62
2022-11-25T12:09:53.784Z,9.71
2022-11-25T12:11:03.764Z,9.80
2022-11-25T12:12:10.659Z,9.97
2022-11-25T12:13:20.088Z,10.05
2022-11-25T12:14:42.293Z,10.06
2022-11-25T12:15:59.610Z,10.02
2022-11-25T12:17:07.322Z,9.92
2022-11-25T12:18:38.497Z,9.85
2022-11-25T12:19:50.203Z,9.84
2022-11-25T12:21:02.813Z,9.85
2022-11-25T12:22:08.309Z,9.80
2022-11-25T12:23:15.328Z,9.77
2022-11-25T12:24:19.576Z,9.86
2022-11-25T12:25:24.257Z,9.89
2022-11-25T12:26:43.368Z,9.95
2022-11-25T12:28:06.450Z,9.96
2022-11-25T12:29:39.363Z,10.08
2022-11-25T12:31:10.439Z,10.08
2022-11-25T12:32:33.970Z,10.25
2022-11-25T12:33:54.745Z,10.66
2022-11-25T12:35:31.265Z,11.61
2022-11-25T12:36:51.145Z,11.92
2022-11-25T12:38:04.536Z,11.75
2022-11-25T12:39:34.220Z,12.18
2022-11-25T12:40:45.165Z,11.84
2022-11-25T12:41:55.772Z,11.94
2022-11-25T12:43:09.952Z,11.91
2022-11-25T12:44:43.789Z,12.15
2022-11-25T12:45:49.823Z,12.36
2022-11-25T12:46:54.787Z,12.46
2022-11-25T12:47:56.394Z,12.40
2022-11-25T12:48:59.411Z,12.44
2022-11-25T12:50:01.893Z,12.23
2022-11-25T12:51:17.106Z,12.06
2022-11-25T12:52:44.773Z,11.87
2022-11-25T12:53:55.817Z,11.82
2022-11-25T12:55:14.846Z,11.73
2022-11-25T12:56:47.939Z,11.36
2022-11-25T12:58:17.551Z,10.95
2022-11-25T12:59:48.595Z,10.87
2022-11-25T13:01:24.974Z,10.91
2022-11-25T13:02:55.593Z,10.78
2022-11-25T13:04:25.237Z,10.72
2022-11-25T13:06:02.029Z,10.71
2022-11-25T13:07:27.387Z,10.90
2022-11-25T13:08:47.624Z,10.84
2022-11-25T13:09:55.268Z,10.84
2022-11-25T13:10:57.293Z,10.75
2022-11-25T13:12:02.052Z,10.68
2022-11-25T13:13:24.713Z,10.68
2022-11-25T13:15:02.319Z,10.66
2022-11-25T13:16:08.445Z,10.50
2022-11-25T13:17:13.270Z,10.44
2022-11-25T13:18:22.207Z,10.33
2022-11-25T13:19:24.269Z,10.32
2022-11-25T13:20:29.150Z,10.26
2022-11-25T13:21:30.734Z,10.26
2022-11-25T13:22:32.407Z,10.26
2022-11-25T13:23:56.460Z,10.25
2022-11-25T13:24:58.450Z,10.18
2022-11-25T13:26:44.908Z,10.23
2022-11-25T13:27:46.494Z,10.21
2022-11-25T13:28:48.089Z,10.18
2022-11-25T13:29:54.993Z,10.18
2022-11-25T13:31:19.304Z,10.20
2022-11-25T13:32:33.764Z,10.21
2022-11-25T13:33:44.821Z,10.25
2022-11-25T13:34:46.524Z,10.30
2022-11-25T13:35:52.385Z,10.33
2022-11-25T13:36:56.544Z,10.40
2022-11-25T13:37:58.191Z,10.42
2022-11-25T13:39:06.271Z,10.42
2022-11-25T13:40:23.189Z,10.40
2022-11-25T13:41:43.493Z,10.42
2022-11-25T13:42:45.690Z,10.43
2022-11-25T13:44:01.964Z,10.45
2022-11-25T13:45:04.281Z,10.45
2022-11-25T13:46:06.004Z,10.46
2022-11-25T13:47:47.649Z,10.48
2022-11-25T13:48:49.649Z,10.45
2022-11-25T13:49:57.629Z,10.43
2022-11-25T13:51:20.826Z,10.48
2022-11-25T13:52:35.274Z,10.50
2022-11-25T13:53:37.923Z,10.53
2022-11-25T13:54:46.813Z,10.55
2022-11-25T13:55:51.592Z,10.50
2022-11-25T13:57:21.774Z,10.46
2022-11-25T13:58:26.932Z,10.32
2022-11-25T13:59:49.093Z,10.26
2022-11-25T14:01:00.621Z,10.29
2022-11-25T14:02:27.134Z,10.23
2022-11-25T14:03:28.903Z,10.19
2022-11-25T14:05:01.415Z,10.18
2022-11-25T14:06:09.046Z,10.18
2022-11-25T14:07:32.043Z,10.18
2022-11-25T14:09:05.368Z,10.19
2022-11-25T14:10:16.107Z,10.14
2022-11-25T14:11:34.769Z,10.10
2022-11-25T14:12:48.092Z,10.04
2022-11-25T14:14:08.592Z,10.01
2022-11-25T14:15:28.628Z,10.00
2022-11-25T14:17:07.183Z,10.02
2022-11-25T14:19:21.823Z,9.99
2022-11-25T14:20:18.229Z,9.96
2022-11-25T14:21:38.357Z,9.94
2022-11-25T14:23:22.205Z,9.90
2022-11-25T14:24:42.656Z,9.87
2022-11-25T14:25:50.967Z,9.83
2022-11-25T14:26:54.842Z,9.80
2022-11-25T14:28:15.548Z,9.76
2022-11-25T14:29:23.003Z,9.73
2022-11-25T14:30:25.949Z,9.73
2022-11-25T14:31:36.322Z,9.76
2022-11-25T14:32:53.362Z,9.73
2022-11-25T14:34:00.051Z,9.70
2022-11-25T14:35:16.590Z,9.69
2022-11-25T14:36:23.026Z,9.74
2022-11-25T14:37:38.239Z,9.74
2022-11-25T14:39:02.099Z,9.75
2022-11-25T14:40:19.867Z,9.63
2022-11-25T14:41:32.092Z,9.65
2022-11-25T14:42:41.410Z,9.63
2022-11-25T14:43:59.818Z,9.63